This is the latest recevied weather packets stored in our database for station/object CA2JAT-13. If no packets are shown the sender has not sent any weather packets the latest 10 day(s).
| Time | Temp. | Humidity | Pressure | Rain* | Wind** | Luminosity | Snow |
|---|---|---|---|---|---|---|---|
| 1788506901 | 10.56° C | 81% | 1020.7 hPa | 0 mm | - | 0 W/m² | - |
| 1788505098 | 11.67° C | 76% | 1020.5 hPa | 0 mm | - | 0 W/m² | - |
| 1788503296 | 11.11° C | 84% | 1021.1 hPa | 0 mm | - | 0 W/m² | - |
| 1788501494 | 11.67° C | 77% | 1021.2 hPa | 0 mm | - | 0 W/m² | - |
| 1788499691 | 11.67° C | 77% | 1021.5 hPa | 0 mm | - | 0 W/m² | - |
| 1788497889 | 11.11° C | 85% | 1021.8 hPa | 0 mm | - | 0 W/m² | - |
| 1788496086 | 11.67° C | 80% | 1021.5 hPa | 0 mm | - | 0 W/m² | - |
| 1788494284 | 11.67° C | 79% | 1021.5 hPa | 0 mm | - | 0 W/m² | - |
| 1788492482 | 12.78° C | 77% | 1021.4 hPa | 0 mm | - | 0 W/m² | - |
| 1788490679 | 13.33° C | 74% | 1021.3 hPa | 0 mm | - | 0 W/m² | - |
| 1788488877 | 13.33° C | 74% | 1021.3 hPa | 0 mm | - | 0 W/m² | - |
| 1788487025 | 15° C | 62% | 1020.9 hPa | 0 mm | - | 0 W/m² | - |
| 1788485223 | 13.89° C | 73% | 1021.3 hPa | 0 mm | - | 0 W/m² | - |
| 1788483419 | 13.89° C | 72% | 1021.2 hPa | 0 mm | - | 0 W/m² | - |
| 1788481617 | 15° C | 71% | 1020.7 hPa | 0 mm | - | 0 W/m² | - |
| 1788479815 | 15.56° C | 67% | 1020 hPa | 0 mm | - | 0 W/m² | - |
| 1788474408 | 18.89° C | 59% | 1018.5 hPa | 0 mm | - | 25 W/m² | - |
| 1788465396 | 21.11° C | 40% | 1018 hPa | 0 mm | - | 140 W/m² | - |
| 1788463594 | 21.11° C | 38% | 1018.2 hPa | 0 mm | - | 186 W/m² | - |
| 1788449174 | 18.33° C | 46% | 1020.6 hPa | 0 mm | - | 270 W/m² | - |
| 1788441913 | 13.33° C | 71% | 1021.5 hPa | 0 mm | - | 173 W/m² | - |
| 1788438309 | 10.56° C | 77% | 1022.2 hPa | 0 mm | - | 103 W/m² | - |
| 1788434704 | 10° C | 85% | 1021.8 hPa | 0 mm | - | 1 W/m² | - |
| 1788431098 | 10.56° C | 86% | 1021.3 hPa | 0 mm | - | 0 W/m² | - |
| 1788429296 | 10.56° C | 85% | 1021.1 hPa | 0 mm | - | 0 W/m² | - |
* Rain latest hour (hover to see other rain measurements)
** Current wind speed in m/s (hover to see current wind gust speed)